Airfield :
LOGIN :

Register | Disclaimer

   EN    FR    IT 

 










Legend :    VFR   Marginal VFR   IFR   Intensive IFR   Very Intensive IFR
Visi :
Ceiling :
>= 8 km
>= 3000ft
5 to 8 km
1000 to 3000 ft
1500m to 5 km
500 to 1000 ft
800 to 1500m
200 to 500 ft
< 800m
< 200 ft
Symbols :   Thunderstorms  Fog  Heavy snow  Heavy precipitations  Wind > 20 kt
SIGMETs :     Misc.  Thunderstorms  Icing  Turbulence  Mountain Waves  Volcanic Ashes







- Airport Elevation : 1906 ft
- IATA code : INN


LOWI - Innsbruck

CURRENT METAR :
  • 191750Z VRB01KT 9999 FEW100 BKN140 04/M02 Q1021 R08/19//95 NOSIG

EXPIRED METARs :
  • 191720Z VRB02KT 9999 FEW100 BKN140 04/M02 Q1021 R08/19//95 NOSIG
  • 191650Z VRB01KT 9999 FEW100 BKN150 05/M02 Q1021 R08/19//95 NOSIG
  • 191620Z VRB02KT 9999 FEW100 BKN180 06/M02 Q1021 R08/19//95 NOSIG
  • 191550Z 11004KT 050V160 CAVOK 08/M04 Q1021 R08/19//95 NOSIG

TAF TAF LOWI
Valid from the 19 at 18:00 until the 20 at 18:00 UTC


191715Z 1918/2018 27005KT 9999 FEW070 SCT100 BKN130 TX09/2014Z TN00/2004Z
TEMPO 1921/2006 09007KT -RASN SCT030 BKN060
BECMG 2009/2011 09005KT FEW050 SCT100 BKN300
No reported NOTAMs for that airfield.



MET'MAP, your aeronautical weather chart ! - Copyright ORBIFLY December 2007 - Disclaimer

ORBIFLY MET'MAP TEAM :

Programming & Development : Alexandra Zaïnal
Concept & Development : Baudouin d'Aumeries
Co-Development & Prog : Marc-Olivier Méhu
Technical & hardware support : Manuel Goepfert

Contact : metmap@orbifly.com




SOURCES & CREDITS :

   NOAA